sensor_id;sensor_type;location;lat;lon;timestamp;P1;durP1;ratioP1;P2;durP2;ratioP2
67889;SDS011;54685;52.082;5.426;2022-11-20T00:01:18;24.83;;;15.95;;
67889;SDS011;54685;52.082;5.426;2022-11-20T00:03:46;28.40;;;14.52;;
67889;SDS011;54685;52.082;5.426;2022-11-20T00:06:14;22.35;;;13.95;;
67889;SDS011;54685;52.082;5.426;2022-11-20T00:08:42;21.42;;;12.30;;
67889;SDS011;54685;52.082;5.426;2022-11-20T00:11:13;15.23;;;11.38;;
67889;SDS011;54685;52.082;5.426;2022-11-20T00:13:45;15.57;;;10.32;;
67889;SDS011;54685;52.082;5.426;2022-11-20T00:16:13;17.38;;;10.82;;
67889;SDS011;54685;52.082;5.426;2022-11-20T00:18:41;27.13;;;10.88;;
67889;SDS011;54685;52.082;5.426;2022-11-20T00:21:12;17.55;;;11.02;;
67889;SDS011;54685;52.082;5.426;2022-11-20T00:23:44;16.88;;;10.98;;
67889;SDS011;54685;52.082;5.426;2022-11-20T00:26:14;16.73;;;10.55;;
67889;SDS011;54685;52.082;5.426;2022-11-20T00:28:43;15.35;;;10.23;;
67889;SDS011;54685;52.082;5.426;2022-11-20T00:31:15;14.18;;;10.70;;
67889;SDS011;54685;52.082;5.426;2022-11-20T00:33:43;16.45;;;10.95;;
67889;SDS011;54685;52.082;5.426;2022-11-20T00:36:11;14.77;;;9.90;;
67889;SDS011;54685;52.082;5.426;2022-11-20T00:38:43;13.85;;;9.73;;
67889;SDS011;54685;52.082;5.426;2022-11-20T00:41:11;15.65;;;10.18;;
67889;SDS011;54685;52.082;5.426;2022-11-20T00:43:39;14.63;;;9.60;;
67889;SDS011;54685;52.082;5.426;2022-11-20T00:46:10;14.65;;;10.25;;
67889;SDS011;54685;52.082;5.426;2022-11-20T00:48:40;26.02;;;15.30;;
67889;SDS011;54685;52.082;5.426;2022-11-20T00:51:07;23.75;;;13.40;;
67889;SDS011;54685;52.082;5.426;2022-11-20T00:53:39;25.77;;;14.10;;
67889;SDS011;54685;52.082;5.426;2022-11-20T00:56:07;14.88;;;10.02;;
67889;SDS011;54685;52.082;5.426;2022-11-20T00:58:37;12.75;;;8.50;;
67889;SDS011;54685;52.082;5.426;2022-11-20T01:03:38;14.27;;;9.07;;
67889;SDS011;54685;52.082;5.426;2022-11-20T01:08:36;12.98;;;9.35;;
67889;SDS011;54685;52.082;5.426;2022-11-20T01:11:07;14.38;;;9.70;;
67889;SDS011;54685;52.082;5.426;2022-11-20T01:13:36;15.55;;;9.70;;
67889;SDS011;54685;52.082;5.426;2022-11-20T01:16:10;15.25;;;9.88;;
67889;SDS011;54685;52.082;5.426;2022-11-20T01:18:52;17.77;;;10.55;;
67889;SDS011;54685;52.082;5.426;2022-11-20T01:21:21;17.10;;;11.00;;
67889;SDS011;54685;52.082;5.426;2022-11-20T01:23:50;16.30;;;11.05;;
67889;SDS011;54685;52.082;5.426;2022-11-20T01:26:19;21.58;;;11.52;;
67889;SDS011;54685;52.082;5.426;2022-11-20T01:28:51;16.60;;;10.57;;
67889;SDS011;54685;52.082;5.426;2022-11-20T01:31:20;17.10;;;10.60;;
67889;SDS011;54685;52.082;5.426;2022-11-20T01:33:49;18.15;;;11.07;;
67889;SDS011;54685;52.082;5.426;2022-11-20T01:36:18;17.00;;;11.00;;
67889;SDS011;54685;52.082;5.426;2022-11-20T01:38:46;18.88;;;10.75;;
67889;SDS011;54685;52.082;5.426;2022-11-20T01:41:14;15.75;;;10.00;;
67889;SDS011;54685;52.082;5.426;2022-11-20T01:44:01;17.90;;;10.73;;
67889;SDS011;54685;52.082;5.426;2022-11-20T01:46:30;19.08;;;10.57;;
67889;SDS011;54685;52.082;5.426;2022-11-20T01:49:03;18.15;;;10.95;;
67889;SDS011;54685;52.082;5.426;2022-11-20T01:51:44;16.75;;;10.50;;
67889;SDS011;54685;52.082;5.426;2022-11-20T01:54:19;17.33;;;11.27;;
67889;SDS011;54685;52.082;5.426;2022-11-20T01:56:51;16.88;;;11.10;;
67889;SDS011;54685;52.082;5.426;2022-11-20T01:59:22;17.70;;;11.45;;
67889;SDS011;54685;52.082;5.426;2022-11-20T02:01:50;19.20;;;11.75;;
67889;SDS011;54685;52.082;5.426;2022-11-20T02:04:17;15.20;;;9.98;;
67889;SDS011;54685;52.082;5.426;2022-11-20T02:06:46;16.20;;;9.90;;
67889;SDS011;54685;52.082;5.426;2022-11-20T02:09:15;13.98;;;9.55;;
67889;SDS011;54685;52.082;5.426;2022-11-20T02:11:43;18.02;;;9.98;;
67889;SDS011;54685;52.082;5.426;2022-11-20T02:14:09;17.08;;;9.57;;
67889;SDS011;54685;52.082;5.426;2022-11-20T02:16:37;17.17;;;10.27;;
67889;SDS011;54685;52.082;5.426;2022-11-20T02:19:22;16.73;;;10.15;;
67889;SDS011;54685;52.082;5.426;2022-11-20T02:22:02;15.88;;;9.90;;
67889;SDS011;54685;52.082;5.426;2022-11-20T02:24:34;15.07;;;9.88;;
67889;SDS011;54685;52.082;5.426;2022-11-20T02:27:02;14.15;;;9.02;;
67889;SDS011;54685;52.082;5.426;2022-11-20T02:29:44;14.80;;;9.52;;
67889;SDS011;54685;52.082;5.426;2022-11-20T02:32:27;14.07;;;9.10;;
67889;SDS011;54685;52.082;5.426;2022-11-20T02:34:55;16.67;;;10.63;;
67889;SDS011;54685;52.082;5.426;2022-11-20T02:37:23;14.40;;;10.23;;
67889;SDS011;54685;52.082;5.426;2022-11-20T02:39:58;18.58;;;9.52;;
67889;SDS011;54685;52.082;5.426;2022-11-20T02:42:25;16.33;;;10.15;;
67889;SDS011;54685;52.082;5.426;2022-11-20T02:44:52;16.27;;;9.63;;
67889;SDS011;54685;52.082;5.426;2022-11-20T02:47:18;17.65;;;10.27;;
67889;SDS011;54685;52.082;5.426;2022-11-20T02:49:45;17.92;;;10.50;;
67889;SDS011;54685;52.082;5.426;2022-11-20T02:52:12;15.82;;;10.00;;
67889;SDS011;54685;52.082;5.426;2022-11-20T02:54:38;21.35;;;9.55;;
67889;SDS011;54685;52.082;5.426;2022-11-20T02:57:05;17.30;;;10.55;;
67889;SDS011;54685;52.082;5.426;2022-11-20T02:59:32;20.30;;;10.90;;
67889;SDS011;54685;52.082;5.426;2022-11-20T03:01:58;20.88;;;10.50;;
67889;SDS011;54685;52.082;5.426;2022-11-20T03:04:25;20.35;;;10.38;;
67889;SDS011;54685;52.082;5.426;2022-11-20T03:06:52;16.85;;;10.07;;
67889;SDS011;54685;52.082;5.426;2022-11-20T03:09:18;15.02;;;10.48;;
67889;SDS011;54685;52.082;5.426;2022-11-20T03:11:45;14.55;;;9.65;;
67889;SDS011;54685;52.082;5.426;2022-11-20T03:14:12;14.50;;;9.25;;
67889;SDS011;54685;52.082;5.426;2022-11-20T03:16:39;12.35;;;8.35;;
67889;SDS011;54685;52.082;5.426;2022-11-20T03:19:06;15.95;;;8.93;;
67889;SDS011;54685;52.082;5.426;2022-11-20T03:21:33;16.17;;;9.52;;
67889;SDS011;54685;52.082;5.426;2022-11-20T03:24:01;12.88;;;8.95;;
67889;SDS011;54685;52.082;5.426;2022-11-20T03:26:28;17.42;;;10.57;;
67889;SDS011;54685;52.082;5.426;2022-11-20T03:28:59;17.27;;;10.45;;
67889;SDS011;54685;52.082;5.426;2022-11-20T03:31:31;16.73;;;11.23;;
67889;SDS011;54685;52.082;5.426;2022-11-20T03:34:00;16.17;;;11.07;;
67889;SDS011;54685;52.082;5.426;2022-11-20T03:36:28;21.25;;;11.43;;
67889;SDS011;54685;52.082;5.426;2022-11-20T03:38:56;16.13;;;10.15;;
67889;SDS011;54685;52.082;5.426;2022-11-20T03:41:25;15.90;;;10.40;;
67889;SDS011;54685;52.082;5.426;2022-11-20T03:43:58;18.08;;;10.90;;
67889;SDS011;54685;52.082;5.426;2022-11-20T03:46:27;16.05;;;10.70;;
67889;SDS011;54685;52.082;5.426;2022-11-20T03:48:54;16.38;;;9.63;;
67889;SDS011;54685;52.082;5.426;2022-11-20T03:51:31;14.45;;;9.25;;
67889;SDS011;54685;52.082;5.426;2022-11-20T03:54:07;16.20;;;9.82;;
67889;SDS011;54685;52.082;5.426;2022-11-20T03:56:37;13.13;;;9.00;;
67889;SDS011;54685;52.082;5.426;2022-11-20T03:59:05;14.38;;;9.40;;
67889;SDS011;54685;52.082;5.426;2022-11-20T04:01:33;17.73;;;10.93;;
67889;SDS011;54685;52.082;5.426;2022-11-20T04:04:03;17.98;;;10.98;;
67889;SDS011;54685;52.082;5.426;2022-11-20T04:06:35;15.35;;;10.35;;
67889;SDS011;54685;52.082;5.426;2022-11-20T04:09:04;16.10;;;10.38;;
67889;SDS011;54685;52.082;5.426;2022-11-20T04:11:32;13.60;;;9.43;;
67889;SDS011;54685;52.082;5.426;2022-11-20T04:14:02;13.20;;;9.73;;
67889;SDS011;54685;52.082;5.426;2022-11-20T04:16:32;15.27;;;9.93;;
67889;SDS011;54685;52.082;5.426;2022-11-20T04:19:02;17.10;;;10.30;;
67889;SDS011;54685;52.082;5.426;2022-11-20T04:21:32;15.23;;;9.98;;
67889;SDS011;54685;52.082;5.426;2022-11-20T04:23:59;16.02;;;10.18;;
67889;SDS011;54685;52.082;5.426;2022-11-20T04:26:27;16.42;;;9.88;;
67889;SDS011;54685;52.082;5.426;2022-11-20T04:28:54;15.75;;;10.43;;
67889;SDS011;54685;52.082;5.426;2022-11-20T04:31:23;17.73;;;9.15;;
67889;SDS011;54685;52.082;5.426;2022-11-20T04:33:52;16.58;;;9.60;;
67889;SDS011;54685;52.082;5.426;2022-11-20T04:36:20;14.35;;;9.38;;
67889;SDS011;54685;52.082;5.426;2022-11-20T04:38:54;15.43;;;9.60;;
67889;SDS011;54685;52.082;5.426;2022-11-20T04:41:23;15.02;;;9.70;;
67889;SDS011;54685;52.082;5.426;2022-11-20T04:43:52;20.38;;;9.88;;
67889;SDS011;54685;52.082;5.426;2022-11-20T04:46:25;13.27;;;8.60;;
67889;SDS011;54685;52.082;5.426;2022-11-20T04:48:53;14.60;;;10.02;;
67889;SDS011;54685;52.082;5.426;2022-11-20T04:51:20;18.60;;;9.73;;
67889;SDS011;54685;52.082;5.426;2022-11-20T04:53:47;14.57;;;8.95;;
67889;SDS011;54685;52.082;5.426;2022-11-20T04:56:13;17.52;;;9.95;;
67889;SDS011;54685;52.082;5.426;2022-11-20T04:58:41;17.23;;;10.48;;
67889;SDS011;54685;52.082;5.426;2022-11-20T05:03:40;17.98;;;10.15;;
67889;SDS011;54685;52.082;5.426;2022-11-20T05:06:08;18.50;;;10.63;;
67889;SDS011;54685;52.082;5.426;2022-11-20T05:08:37;16.20;;;10.40;;
67889;SDS011;54685;52.082;5.426;2022-11-20T05:11:13;18.52;;;10.38;;
67889;SDS011;54685;52.082;5.426;2022-11-20T05:13:42;16.52;;;10.27;;
67889;SDS011;54685;52.082;5.426;2022-11-20T05:16:10;17.92;;;10.05;;
67889;SDS011;54685;52.082;5.426;2022-11-20T05:18:39;17.95;;;9.60;;
67889;SDS011;54685;52.082;5.426;2022-11-20T05:21:07;21.63;;;9.73;;
67889;SDS011;54685;52.082;5.426;2022-11-20T05:23:35;15.63;;;10.15;;
67889;SDS011;54685;52.082;5.426;2022-11-20T05:26:02;14.55;;;8.55;;
67889;SDS011;54685;52.082;5.426;2022-11-20T05:28:30;18.45;;;9.70;;
67889;SDS011;54685;52.082;5.426;2022-11-20T05:31:05;22.55;;;11.18;;
67889;SDS011;54685;52.082;5.426;2022-11-20T05:33:32;16.20;;;9.90;;
67889;SDS011;54685;52.082;5.426;2022-11-20T05:35:59;16.08;;;10.13;;
67889;SDS011;54685;52.082;5.426;2022-11-20T05:38:26;19.02;;;9.82;;
67889;SDS011;54685;52.082;5.426;2022-11-20T05:40:53;17.85;;;9.68;;
67889;SDS011;54685;52.082;5.426;2022-11-20T05:43:19;15.55;;;10.70;;
67889;SDS011;54685;52.082;5.426;2022-11-20T05:45:53;16.35;;;10.48;;
67889;SDS011;54685;52.082;5.426;2022-11-20T05:48:20;16.23;;;10.73;;
67889;SDS011;54685;52.082;5.426;2022-11-20T05:50:47;17.77;;;10.50;;
67889;SDS011;54685;52.082;5.426;2022-11-20T05:53:14;18.60;;;10.05;;
67889;SDS011;54685;52.082;5.426;2022-11-20T05:55:41;18.80;;;10.23;;
67889;SDS011;54685;52.082;5.426;2022-11-20T05:58:07;19.90;;;10.13;;
67889;SDS011;54685;52.082;5.426;2022-11-20T06:00:34;22.90;;;10.05;;
67889;SDS011;54685;52.082;5.426;2022-11-20T06:03:01;14.70;;;9.68;;
67889;SDS011;54685;52.082;5.426;2022-11-20T06:05:28;15.68;;;10.23;;
67889;SDS011;54685;52.082;5.426;2022-11-20T06:07:55;13.57;;;8.77;;
67889;SDS011;54685;52.082;5.426;2022-11-20T06:10:22;14.32;;;9.48;;
67889;SDS011;54685;52.082;5.426;2022-11-20T06:12:48;15.90;;;9.30;;
67889;SDS011;54685;52.082;5.426;2022-11-20T06:15:15;17.33;;;9.02;;
67889;SDS011;54685;52.082;5.426;2022-11-20T06:17:41;13.27;;;8.55;;
67889;SDS011;54685;52.082;5.426;2022-11-20T06:20:08;16.77;;;9.20;;
67889;SDS011;54685;52.082;5.426;2022-11-20T06:22:35;15.95;;;8.73;;
67889;SDS011;54685;52.082;5.426;2022-11-20T06:25:02;12.85;;;8.30;;
67889;SDS011;54685;52.082;5.426;2022-11-20T06:27:29;13.60;;;8.13;;
67889;SDS011;54685;52.082;5.426;2022-11-20T06:29:56;17.65;;;8.82;;
67889;SDS011;54685;52.082;5.426;2022-11-20T06:32:22;13.00;;;7.85;;
67889;SDS011;54685;52.082;5.426;2022-11-20T06:34:49;14.48;;;9.05;;
67889;SDS011;54685;52.082;5.426;2022-11-20T06:37:16;19.00;;;10.60;;
67889;SDS011;54685;52.082;5.426;2022-11-20T06:39:42;16.40;;;9.57;;
67889;SDS011;54685;52.082;5.426;2022-11-20T06:42:09;19.05;;;11.05;;
67889;SDS011;54685;52.082;5.426;2022-11-20T06:44:36;18.75;;;10.75;;
67889;SDS011;54685;52.082;5.426;2022-11-20T06:47:03;22.73;;;11.55;;
67889;SDS011;54685;52.082;5.426;2022-11-20T06:49:30;15.68;;;10.32;;
67889;SDS011;54685;52.082;5.426;2022-11-20T06:51:56;18.30;;;10.15;;
67889;SDS011;54685;52.082;5.426;2022-11-20T06:54:23;20.20;;;9.93;;
67889;SDS011;54685;52.082;5.426;2022-11-20T06:56:50;16.80;;;10.35;;
67889;SDS011;54685;52.082;5.426;2022-11-20T06:59:17;20.05;;;11.52;;
67889;SDS011;54685;52.082;5.426;2022-11-20T07:01:44;16.42;;;10.57;;
67889;SDS011;54685;52.082;5.426;2022-11-20T07:04:10;15.90;;;10.85;;
67889;SDS011;54685;52.082;5.426;2022-11-20T07:06:37;19.42;;;10.18;;
67889;SDS011;54685;52.082;5.426;2022-11-20T07:09:04;16.92;;;10.65;;
67889;SDS011;54685;52.082;5.426;2022-11-20T07:11:37;21.90;;;9.88;;
67889;SDS011;54685;52.082;5.426;2022-11-20T07:14:04;18.75;;;10.73;;
67889;SDS011;54685;52.082;5.426;2022-11-20T07:16:31;22.38;;;11.80;;
67889;SDS011;54685;52.082;5.426;2022-11-20T07:18:58;17.05;;;10.85;;
67889;SDS011;54685;52.082;5.426;2022-11-20T07:21:24;19.00;;;12.18;;
67889;SDS011;54685;52.082;5.426;2022-11-20T07:23:51;23.52;;;13.48;;
67889;SDS011;54685;52.082;5.426;2022-11-20T07:26:18;32.03;;;18.25;;
67889;SDS011;54685;52.082;5.426;2022-11-20T07:28:45;28.15;;;15.55;;
67889;SDS011;54685;52.082;5.426;2022-11-20T07:31:12;26.58;;;15.10;;
67889;SDS011;54685;52.082;5.426;2022-11-20T07:33:44;23.90;;;13.80;;
67889;SDS011;54685;52.082;5.426;2022-11-20T07:36:11;20.05;;;13.15;;
67889;SDS011;54685;52.082;5.426;2022-11-20T07:38:37;28.92;;;15.45;;
67889;SDS011;54685;52.082;5.426;2022-11-20T07:41:04;26.30;;;13.38;;
67889;SDS011;54685;52.082;5.426;2022-11-20T07:43:31;25.23;;;13.40;;
67889;SDS011;54685;52.082;5.426;2022-11-20T07:46:05;26.40;;;14.95;;
67889;SDS011;54685;52.082;5.426;2022-11-20T07:48:31;25.58;;;12.65;;
67889;SDS011;54685;52.082;5.426;2022-11-20T07:50:58;22.48;;;12.73;;
67889;SDS011;54685;52.082;5.426;2022-11-20T07:53:25;22.65;;;13.07;;
67889;SDS011;54685;52.082;5.426;2022-11-20T07:55:54;26.23;;;14.80;;
67889;SDS011;54685;52.082;5.426;2022-11-20T07:58:21;22.48;;;13.10;;
67889;SDS011;54685;52.082;5.426;2022-11-20T08:00:48;21.02;;;12.30;;
67889;SDS011;54685;52.082;5.426;2022-11-20T08:03:15;20.75;;;12.52;;
67889;SDS011;54685;52.082;5.426;2022-11-20T08:05:49;19.92;;;12.55;;
67889;SDS011;54685;52.082;5.426;2022-11-20T08:08:16;22.38;;;13.55;;
67889;SDS011;54685;52.082;5.426;2022-11-20T08:10:43;25.95;;;14.35;;
67889;SDS011;54685;52.082;5.426;2022-11-20T08:13:10;23.85;;;13.10;;
67889;SDS011;54685;52.082;5.426;2022-11-20T08:15:55;31.33;;;16.15;;
67889;SDS011;54685;52.082;5.426;2022-11-20T08:18:22;20.30;;;13.13;;
67889;SDS011;54685;52.082;5.426;2022-11-20T08:20:57;20.30;;;12.68;;
67889;SDS011;54685;52.082;5.426;2022-11-20T08:23:27;22.45;;;12.70;;
67889;SDS011;54685;52.082;5.426;2022-11-20T08:25:54;18.70;;;12.43;;
67889;SDS011;54685;52.082;5.426;2022-11-20T08:28:21;18.48;;;11.57;;
67889;SDS011;54685;52.082;5.426;2022-11-20T08:30:48;21.70;;;13.02;;
67889;SDS011;54685;52.082;5.426;2022-11-20T08:33:16;27.25;;;13.77;;
67889;SDS011;54685;52.082;5.426;2022-11-20T08:35:44;23.10;;;14.00;;
67889;SDS011;54685;52.082;5.426;2022-11-20T08:38:11;28.98;;;14.95;;
67889;SDS011;54685;52.082;5.426;2022-11-20T08:40:37;20.73;;;13.25;;
67889;SDS011;54685;52.082;5.426;2022-11-20T08:43:04;22.10;;;12.68;;
67889;SDS011;54685;52.082;5.426;2022-11-20T08:45:31;20.95;;;12.93;;
67889;SDS011;54685;52.082;5.426;2022-11-20T08:48:00;20.67;;;12.88;;
67889;SDS011;54685;52.082;5.426;2022-11-20T08:50:29;19.88;;;13.00;;
67889;SDS011;54685;52.082;5.426;2022-11-20T08:53:03;26.95;;;16.48;;
67889;SDS011;54685;52.082;5.426;2022-11-20T08:55:30;27.27;;;15.98;;
67889;SDS011;54685;52.082;5.426;2022-11-20T08:57:57;24.27;;;13.95;;
67889;SDS011;54685;52.082;5.426;2022-11-20T09:00:24;23.48;;;14.52;;
67889;SDS011;54685;52.082;5.426;2022-11-20T09:02:51;20.30;;;13.07;;
67889;SDS011;54685;52.082;5.426;2022-11-20T09:05:18;19.73;;;12.43;;
67889;SDS011;54685;52.082;5.426;2022-11-20T09:07:45;21.48;;;12.63;;
67889;SDS011;54685;52.082;5.426;2022-11-20T09:10:12;19.60;;;12.50;;
67889;SDS011;54685;52.082;5.426;2022-11-20T09:12:54;19.60;;;12.20;;
67889;SDS011;54685;52.082;5.426;2022-11-20T09:15:21;21.65;;;11.55;;
67889;SDS011;54685;52.082;5.426;2022-11-20T09:20:23;24.77;;;14.13;;
67889;SDS011;54685;52.082;5.426;2022-11-20T09:22:50;19.23;;;12.88;;
67889;SDS011;54685;52.082;5.426;2022-11-20T09:25:17;18.42;;;12.68;;
67889;SDS011;54685;52.082;5.426;2022-11-20T09:27:44;18.63;;;13.43;;
67889;SDS011;54685;52.082;5.426;2022-11-20T09:30:13;22.80;;;13.45;;
67889;SDS011;54685;52.082;5.426;2022-11-20T09:32:41;20.17;;;13.63;;
67889;SDS011;54685;52.082;5.426;2022-11-20T09:35:08;26.60;;;15.43;;
67889;SDS011;54685;52.082;5.426;2022-11-20T09:37:37;21.13;;;14.02;;
67889;SDS011;54685;52.082;5.426;2022-11-20T09:40:04;20.38;;;13.63;;
67889;SDS011;54685;52.082;5.426;2022-11-20T09:42:40;22.48;;;14.82;;
67889;SDS011;54685;52.082;5.426;2022-11-20T09:56:08;22.70;;;13.82;;
67889;SDS011;54685;52.082;5.426;2022-11-20T09:58:44;22.80;;;14.38;;
67889;SDS011;54685;52.082;5.426;2022-11-20T10:01:15;21.70;;;15.27;;
67889;SDS011;54685;52.082;5.426;2022-11-20T10:03:57;22.58;;;14.48;;
67889;SDS011;54685;52.082;5.426;2022-11-20T10:06:32;25.90;;;14.75;;
67889;SDS011;54685;52.082;5.426;2022-11-20T10:14:27;19.02;;;13.02;;
67889;SDS011;54685;52.082;5.426;2022-11-20T10:25:37;16.63;;;11.85;;
67889;SDS011;54685;52.082;5.426;2022-11-20T10:28:34;27.00;;;16.13;;
67889;SDS011;54685;52.082;5.426;2022-11-20T10:31:04;19.42;;;14.15;;
67889;SDS011;54685;52.082;5.426;2022-11-20T10:33:39;18.83;;;13.65;;
67889;SDS011;54685;52.082;5.426;2022-11-20T10:36:34;29.83;;;16.10;;
67889;SDS011;54685;52.082;5.426;2022-11-20T10:39:18;26.15;;;16.25;;
67889;SDS011;54685;52.082;5.426;2022-11-20T10:41:54;26.08;;;16.40;;
67889;SDS011;54685;52.082;5.426;2022-11-20T10:44:29;25.55;;;16.92;;
67889;SDS011;54685;52.082;5.426;2022-11-20T10:47:21;27.13;;;16.33;;
67889;SDS011;54685;52.082;5.426;2022-11-20T10:49:49;21.90;;;15.23;;
67889;SDS011;54685;52.082;5.426;2022-11-20T10:55:32;24.65;;;15.70;;
67889;SDS011;54685;52.082;5.426;2022-11-20T11:00:52;29.17;;;17.55;;
67889;SDS011;54685;52.082;5.426;2022-11-20T11:03:29;24.60;;;16.40;;
67889;SDS011;54685;52.082;5.426;2022-11-20T11:06:03;29.90;;;19.10;;
67889;SDS011;54685;52.082;5.426;2022-11-20T11:08:53;27.75;;;19.35;;
67889;SDS011;54685;52.082;5.426;2022-11-20T11:11:28;27.33;;;18.27;;
67889;SDS011;54685;52.082;5.426;2022-11-20T11:14:06;26.52;;;18.30;;
67889;SDS011;54685;52.082;5.426;2022-11-20T11:16:35;28.20;;;17.95;;
67889;SDS011;54685;52.082;5.426;2022-11-20T11:19:13;31.17;;;17.55;;
67889;SDS011;54685;52.082;5.426;2022-11-20T11:24:51;31.08;;;18.83;;
67889;SDS011;54685;52.082;5.426;2022-11-20T11:27:19;29.73;;;19.55;;
67889;SDS011;54685;52.082;5.426;2022-11-20T11:29:46;28.25;;;19.25;;
67889;SDS011;54685;52.082;5.426;2022-11-20T11:32:20;31.42;;;20.08;;
67889;SDS011;54685;52.082;5.426;2022-11-20T11:35:00;34.25;;;20.17;;
67889;SDS011;54685;52.082;5.426;2022-11-20T11:37:33;32.00;;;21.77;;
67889;SDS011;54685;52.082;5.426;2022-11-20T11:40:02;30.30;;;19.52;;
67889;SDS011;54685;52.082;5.426;2022-11-20T11:42:56;35.20;;;20.10;;
67889;SDS011;54685;52.082;5.426;2022-11-20T11:45:26;33.92;;;21.58;;
67889;SDS011;54685;52.082;5.426;2022-11-20T11:47:53;33.60;;;21.05;;
67889;SDS011;54685;52.082;5.426;2022-11-20T11:50:27;32.33;;;19.42;;
67889;SDS011;54685;52.082;5.426;2022-11-20T11:55:47;32.45;;;20.55;;
67889;SDS011;54685;52.082;5.426;2022-11-20T12:04:13;38.20;;;23.25;;
67889;SDS011;54685;52.082;5.426;2022-11-20T12:06:59;34.88;;;23.48;;
67889;SDS011;54685;52.082;5.426;2022-11-20T12:09:52;40.80;;;24.13;;
67889;SDS011;54685;52.082;5.426;2022-11-20T12:12:22;36.05;;;22.00;;
67889;SDS011;54685;52.082;5.426;2022-11-20T12:14:55;38.28;;;23.08;;
67889;SDS011;54685;52.082;5.426;2022-11-20T12:17:23;35.10;;;22.60;;
67889;SDS011;54685;52.082;5.426;2022-11-20T12:19:50;34.40;;;21.42;;
67889;SDS011;54685;52.082;5.426;2022-11-20T12:27:53;35.03;;;21.77;;
67889;SDS011;54685;52.082;5.426;2022-11-20T12:47:49;31.58;;;20.38;;
67889;SDS011;54685;52.082;5.426;2022-11-20T12:50:30;31.70;;;20.42;;
67889;SDS011;54685;52.082;5.426;2022-11-20T12:53:40;32.65;;;20.80;;
67889;SDS011;54685;52.082;5.426;2022-11-20T12:56:24;35.72;;;23.33;;
67889;SDS011;54685;52.082;5.426;2022-11-20T13:01:56;31.60;;;21.20;;
67889;SDS011;54685;52.082;5.426;2022-11-20T13:07:29;34.80;;;21.98;;
67889;SDS011;54685;52.082;5.426;2022-11-20T13:09:58;35.38;;;21.73;;
67889;SDS011;54685;52.082;5.426;2022-11-20T13:20:17;36.30;;;23.48;;
67889;SDS011;54685;52.082;5.426;2022-11-20T13:22:48;36.42;;;23.25;;
67889;SDS011;54685;52.082;5.426;2022-11-20T13:27:52;42.50;;;25.13;;
67889;SDS011;54685;52.082;5.426;2022-11-20T13:30:20;36.75;;;23.25;;
67889;SDS011;54685;52.082;5.426;2022-11-20T13:35:32;38.92;;;23.63;;
67889;SDS011;54685;52.082;5.426;2022-11-20T13:38:05;39.67;;;24.33;;
67889;SDS011;54685;52.082;5.426;2022-11-20T13:40:37;38.53;;;24.20;;
67889;SDS011;54685;52.082;5.426;2022-11-20T13:43:21;36.58;;;22.27;;
67889;SDS011;54685;52.082;5.426;2022-11-20T13:45:58;34.35;;;22.33;;
67889;SDS011;54685;52.082;5.426;2022-11-20T13:48:29;38.63;;;22.58;;
67889;SDS011;54685;52.082;5.426;2022-11-20T13:51:15;34.42;;;21.33;;
67889;SDS011;54685;52.082;5.426;2022-11-20T14:01:30;41.88;;;23.70;;
67889;SDS011;54685;52.082;5.426;2022-11-20T14:03:58;40.55;;;24.60;;
67889;SDS011;54685;52.082;5.426;2022-11-20T14:06:34;38.53;;;23.08;;
67889;SDS011;54685;52.082;5.426;2022-11-20T14:09:10;38.50;;;23.90;;
67889;SDS011;54685;52.082;5.426;2022-11-20T14:11:45;39.97;;;25.13;;
67889;SDS011;54685;52.082;5.426;2022-11-20T14:14:13;36.15;;;23.23;;
67889;SDS011;54685;52.082;5.426;2022-11-20T14:16:42;45.40;;;24.25;;
67889;SDS011;54685;52.082;5.426;2022-11-20T14:19:28;41.20;;;23.75;;
67889;SDS011;54685;52.082;5.426;2022-11-20T14:22:39;40.10;;;23.27;;
67889;SDS011;54685;52.082;5.426;2022-11-20T14:24:49;37.50;;;21.88;;
67889;SDS011;54685;52.082;5.426;2022-11-20T14:27:33;41.05;;;23.67;;
67889;SDS011;54685;52.082;5.426;2022-11-20T14:30:03;45.35;;;24.95;;
67889;SDS011;54685;52.082;5.426;2022-11-20T14:32:31;45.60;;;25.10;;
67889;SDS011;54685;52.082;5.426;2022-11-20T14:35:08;45.67;;;24.90;;
67889;SDS011;54685;52.082;5.426;2022-11-20T14:37:37;38.90;;;23.67;;
67889;SDS011;54685;52.082;5.426;2022-11-20T14:40:27;36.67;;;22.60;;
67889;SDS011;54685;52.082;5.426;2022-11-20T14:42:57;40.33;;;23.23;;
67889;SDS011;54685;52.082;5.426;2022-11-20T14:45:25;41.17;;;23.13;;
67889;SDS011;54685;52.082;5.426;2022-11-20T14:47:53;44.35;;;24.98;;
67889;SDS011;54685;52.082;5.426;2022-11-20T14:50:26;41.30;;;23.63;;
67889;SDS011;54685;52.082;5.426;2022-11-20T14:52:56;38.47;;;22.92;;
67889;SDS011;54685;52.082;5.426;2022-11-20T14:55:31;40.42;;;24.10;;
67889;SDS011;54685;52.082;5.426;2022-11-20T14:58:21;45.20;;;26.13;;
67889;SDS011;54685;52.082;5.426;2022-11-20T15:01:20;40.88;;;23.30;;
67889;SDS011;54685;52.082;5.426;2022-11-20T15:03:57;45.25;;;24.70;;
67889;SDS011;54685;52.082;5.426;2022-11-20T15:06:26;37.47;;;22.88;;
67889;SDS011;54685;52.082;5.426;2022-11-20T15:08:53;40.33;;;23.98;;
67889;SDS011;54685;52.082;5.426;2022-11-20T15:11:22;44.83;;;27.80;;
67889;SDS011;54685;52.082;5.426;2022-11-20T15:13:54;41.88;;;24.95;;
67889;SDS011;54685;52.082;5.426;2022-11-20T15:16:21;44.70;;;25.80;;
67889;SDS011;54685;52.082;5.426;2022-11-20T15:18:50;42.53;;;25.83;;
67889;SDS011;54685;52.082;5.426;2022-11-20T15:21:18;58.90;;;31.45;;
67889;SDS011;54685;52.082;5.426;2022-11-20T15:23:47;46.13;;;24.63;;
67889;SDS011;54685;52.082;5.426;2022-11-20T15:26:19;47.47;;;26.45;;
67889;SDS011;54685;52.082;5.426;2022-11-20T15:28:52;53.00;;;27.00;;
67889;SDS011;54685;52.082;5.426;2022-11-20T15:31:20;48.17;;;25.35;;
67889;SDS011;54685;52.082;5.426;2022-11-20T15:33:49;42.78;;;25.20;;
67889;SDS011;54685;52.082;5.426;2022-11-20T15:36:16;44.72;;;23.67;;
67889;SDS011;54685;52.082;5.426;2022-11-20T15:38:43;44.22;;;25.40;;
67889;SDS011;54685;52.082;5.426;2022-11-20T15:41:10;42.00;;;23.83;;
67889;SDS011;54685;52.082;5.426;2022-11-20T15:43:37;51.05;;;26.90;;
67889;SDS011;54685;52.082;5.426;2022-11-20T15:46:05;44.97;;;26.25;;
67889;SDS011;54685;52.082;5.426;2022-11-20T15:48:39;41.03;;;24.17;;
67889;SDS011;54685;52.082;5.426;2022-11-20T15:51:33;41.50;;;22.75;;
67889;SDS011;54685;52.082;5.426;2022-11-20T15:54:05;39.58;;;23.75;;
67889;SDS011;54685;52.082;5.426;2022-11-20T15:56:47;41.00;;;23.40;;
67889;SDS011;54685;52.082;5.426;2022-11-20T15:59:20;47.83;;;24.23;;
67889;SDS011;54685;52.082;5.426;2022-11-20T16:01:47;35.67;;;22.02;;
67889;SDS011;54685;52.082;5.426;2022-11-20T16:04:14;39.80;;;23.58;;
67889;SDS011;54685;52.082;5.426;2022-11-20T16:06:42;40.95;;;21.88;;
67889;SDS011;54685;52.082;5.426;2022-11-20T16:09:09;40.90;;;23.77;;
67889;SDS011;54685;52.082;5.426;2022-11-20T16:11:36;36.85;;;22.55;;
67889;SDS011;54685;52.082;5.426;2022-11-20T16:14:04;39.83;;;22.70;;
67889;SDS011;54685;52.082;5.426;2022-11-20T16:16:50;41.55;;;23.95;;
67889;SDS011;54685;52.082;5.426;2022-11-20T16:19:17;42.38;;;23.35;;
67889;SDS011;54685;52.082;5.426;2022-11-20T16:21:44;36.63;;;21.83;;
67889;SDS011;54685;52.082;5.426;2022-11-20T16:24:12;42.33;;;24.45;;
67889;SDS011;54685;52.082;5.426;2022-11-20T16:26:40;43.33;;;25.75;;